Time;durP1;ratioP1;P1;durP2;ratioP2;P2;SDS_P1;SDS_P2;PMS_P1;PMS_P2;Temp;Humidity;BMP_temperature;BMP_pressure;BME280_temperature;BME280_humidity;BME280_pressure;Samples;Min_cycle;Max_cycle;Signal;HPM_P1;HPM_P2
2021/12/20 07:02:39;;;;;;;4.05;1.63;;;;;;;;;;4998889;28;20386;-37
2021/12/20 07:05:06;;;;;;;1.92;1.00;;;;;;;;;;5008592;28;20164;-39
2021/12/20 07:07:32;;;;;;;3.28;1.33;;;;;;;;;;5010903;28;20045;-43
2021/12/20 07:09:57;;;;;;;2.95;0.95;;;;;;;;;;5013809;28;20440;-36
2021/12/20 07:12:24;;;;;;;2.97;1.13;;;;;;;;;;5009651;28;20457;-38
2021/12/20 07:14:51;;;;;;;4.15;1.00;;;;;;;;;;5012996;28;20100;-38
2021/12/20 07:17:21;;;;;;;1.60;0.98;;;;;;;;;;5010915;28;20038;-38
2021/12/20 07:19:47;;;;;;;2.00;1.17;;;;;;;;;;5012522;28;20044;-36
2021/12/20 07:22:13;;;;;;;4.78;1.20;;;;;;;;;;5011258;28;20203;-33
2021/12/20 07:24:38;;;;;;;3.70;1.05;;;;;;;;;;5011319;28;20208;-43
2021/12/20 07:27:05;;;;;;;2.78;1.25;;;;;;;;;;5012605;28;20061;-42
2021/12/20 07:29:31;;;;;;;10.60;1.52;;;;;;;;;;5008685;28;20141;-46
2021/12/20 07:31:57;;;;;;;3.50;1.27;;;;;;;;;;5012713;28;20105;-42
2021/12/20 07:34:22;;;;;;;3.13;1.13;;;;;;;;;;5009095;28;20062;-37
2021/12/20 07:36:50;;;;;;;2.95;1.30;;;;;;;;;;5011732;28;20048;-38
2021/12/20 07:39:16;;;;;;;2.30;1.30;;;;;;;;;;5010690;28;20444;-39
2021/12/20 07:41:42;;;;;;;2.35;1.23;;;;;;;;;;5012205;28;20137;-39
2021/12/20 07:44:07;;;;;;;1.35;1.08;;;;;;;;;;5012394;28;20042;-37
2021/12/20 07:46:33;;;;;;;3.65;1.15;;;;;;;;;;5008511;28;20052;-42
2021/12/20 07:49:00;;;;;;;4.53;1.40;;;;;;;;;;5011431;28;20547;-40
2021/12/20 07:51:26;;;;;;;2.88;1.42;;;;;;;;;;5008564;28;20045;-43
2021/12/20 07:53:52;;;;;;;5.30;1.50;;;;;;;;;;5010463;28;20048;-37
2021/12/20 07:56:18;;;;;;;4.18;1.30;;;;;;;;;;5008931;28;20073;-37
2021/12/20 07:58:44;;;;;;;2.15;1.30;;;;;;;;;;5008774;28;20053;-38
2021/12/20 08:01:10;;;;;;;4.68;1.58;;;;;;;;;;5009025;28;20475;-42
2021/12/20 08:03:38;;;;;;;2.50;1.60;;;;;;;;;;5007676;28;20049;-43
2021/12/20 08:06:04;;;;;;;4.57;1.20;;;;;;;;;;5010661;28;20474;-43
2021/12/20 08:08:30;;;;;;;2.40;1.05;;;;;;;;;;4998312;28;20051;-48
2021/12/20 08:10:56;;;;;;;2.95;1.15;;;;;;;;;;5012523;28;20564;-44
2021/12/20 08:13:22;;;;;;;3.10;1.30;;;;;;;;;;4998750;28;20112;-43
2021/12/20 08:15:47;;;;;;;2.80;1.08;;;;;;;;;;4995319;28;20449;-43
2021/12/20 08:18:13;;;;;;;2.42;1.27;;;;;;;;;;4996492;28;20045;-42
2021/12/20 08:20:40;;;;;;;2.10;1.52;;;;;;;;;;4995410;28;20129;-43
2021/12/20 08:23:06;;;;;;;2.13;1.30;;;;;;;;;;4997513;28;20412;-40
2021/12/20 08:25:32;;;;;;;3.17;1.15;;;;;;;;;;4996924;28;20498;-42
2021/12/20 08:27:58;;;;;;;2.80;1.30;;;;;;;;;;4995295;28;20038;-42
2021/12/20 08:30:24;;;;;;;2.85;1.45;;;;;;;;;;4995476;28;20130;-46
2021/12/20 08:32:51;;;;;;;1.98;1.05;;;;;;;;;;4994382;28;20126;-44
2021/12/20 08:35:17;;;;;;;2.13;1.40;;;;;;;;;;4995574;28;20046;-44
2021/12/20 08:37:43;;;;;;;4.10;1.40;;;;;;;;;;4998053;28;20451;-45
2021/12/20 08:40:11;;;;;;;3.97;1.50;;;;;;;;;;4997662;28;20115;-44
2021/12/20 08:42:38;;;;;;;3.25;1.70;;;;;;;;;;4995937;28;20496;-46
2021/12/20 08:45:06;;;;;;;2.90;1.02;;;;;;;;;;4998341;28;21111;-43
2021/12/20 08:47:32;;;;;;;2.85;1.27;;;;;;;;;;4994753;28;20046;-47
2021/12/20 08:50:00;;;;;;;3.47;1.35;;;;;;;;;;4997116;28;20038;-44
2021/12/20 08:52:26;;;;;;;3.08;1.42;;;;;;;;;;4996308;28;20099;-43
2021/12/20 08:54:51;;;;;;;1.45;1.00;;;;;;;;;;4997242;28;20088;-47
2021/12/20 08:57:17;;;;;;;2.10;1.27;;;;;;;;;;4995428;28;20069;-43
2021/12/20 08:59:43;;;;;;;3.75;1.63;;;;;;;;;;4995625;28;20030;-48
2021/12/20 09:02:10;;;;;;;2.67;1.40;;;;;;;;;;4994969;28;20042;-45
2021/12/20 09:04:36;;;;;;;1.98;1.15;;;;;;;;;;4997507;28;20572;-42
2021/12/20 09:07:03;;;;;;;3.75;1.55;;;;;;;;;;4991147;28;20054;-41
2021/12/20 09:09:35;;;;;;;2.60;1.45;;;;;;;;;;4997173;28;20069;-46
2021/12/20 09:12:01;;;;;;;1.98;1.33;;;;;;;;;;4997157;28;20041;-44
2021/12/20 09:14:28;;;;;;;3.55;1.38;;;;;;;;;;4994741;28;20037;-46
2021/12/20 09:16:54;;;;;;;3.20;1.30;;;;;;;;;;4997290;28;20046;-44
2021/12/20 09:19:20;;;;;;;4.82;1.35;;;;;;;;;;4994481;28;20089;-44
2021/12/20 09:21:48;;;;;;;3.88;1.75;;;;;;;;;;4997044;28;20038;-41
2021/12/20 09:24:14;;;;;;;5.75;2.20;;;;;;;;;;4995053;28;20053;-47
2021/12/20 09:26:40;;;;;;;5.00;2.00;;;;;;;;;;4996833;28;20050;-43
2021/12/20 09:29:05;;;;;;;4.18;1.88;;;;;;;;;;4992860;28;20457;-45
2021/12/20 09:31:31;;;;;;;3.97;1.40;;;;;;;;;;4993542;28;20053;-42
2021/12/20 09:33:58;;;;;;;2.67;1.38;;;;;;;;;;4994261;28;20084;-45
2021/12/20 09:36:29;;;;;;;4.53;2.00;;;;;;;;;;4994772;28;20042;-45
2021/12/20 09:38:55;;;;;;;5.75;2.05;;;;;;;;;;4994437;28;20112;-42
2021/12/20 09:44:07;;;;;;;3.05;1.95;;;;;;;;;;4994413;28;20523;-45
2021/12/20 09:46:33;;;;;;;4.57;1.55;;;;;;;;;;4993272;28;20053;-45
2021/12/20 09:48:59;;;;;;;5.43;1.77;;;;;;;;;;4995034;28;20042;-43
2021/12/20 09:51:25;;;;;;;2.90;1.40;;;;;;;;;;4993439;28;20047;-48
2021/12/20 09:53:52;;;;;;;3.22;2.10;;;;;;;;;;4991665;28;20038;-44
2021/12/20 09:56:19;;;;;;;2.90;1.48;;;;;;;;;;4993357;28;20241;-42
2021/12/20 09:58:48;;;;;;;3.58;1.55;;;;;;;;;;4990773;28;20080;-43
2021/12/20 10:01:14;;;;;;;6.15;1.77;;;;;;;;;;4993223;28;20045;-39
2021/12/20 10:03:43;;;;;;;5.28;2.45;;;;;;;;;;4992410;28;20065;-37
2021/12/20 10:06:08;;;;;;;4.20;1.60;;;;;;;;;;4994465;28;20128;-37
2021/12/20 10:08:37;;;;;;;3.58;1.77;;;;;;;;;;4994667;28;20038;-36
2021/12/20 10:11:26;;;;;;;2.47;1.58;;;;;;;;;;4996945;28;20471;-43
2021/12/20 10:14:08;;;;;;;4.07;1.90;;;;;;;;;;4995527;28;20532;-42
2021/12/20 10:16:36;;;;;;;4.45;1.67;;;;;;;;;;4995698;28;20476;-41
2021/12/20 10:19:04;;;;;;;4.63;1.65;;;;;;;;;;4996437;28;20045;-44
2021/12/20 10:21:41;;;;;;;3.80;2.00;;;;;;;;;;4994198;28;20042;-46
2021/12/20 10:24:07;;;;;;;5.15;1.92;;;;;;;;;;4995150;28;20129;-44
2021/12/20 10:26:40;;;;;;;4.80;1.95;;;;;;;;;;4994483;28;20034;-44
2021/12/20 10:29:18;;;;;;;3.55;1.80;;;;;;;;;;4996079;28;20639;-43
2021/12/20 10:31:44;;;;;;;3.67;1.63;;;;;;;;;;4994432;28;20042;-44
2021/12/20 10:34:09;;;;;;;3.40;1.63;;;;;;;;;;4997910;28;20049;-44
2021/12/20 10:36:36;;;;;;;4.15;1.95;;;;;;;;;;4992738;28;20501;-42
2021/12/20 10:39:04;;;;;;;3.95;1.40;;;;;;;;;;4995003;28;20052;-43
2021/12/20 10:41:37;;;;;;;5.22;1.88;;;;;;;;;;4995440;28;20405;-44
2021/12/20 10:44:14;;;;;;;5.95;2.08;;;;;;;;;;4994165;28;20451;-45
2021/12/20 10:46:54;;;;;;;4.65;1.67;;;;;;;;;;4995311;28;20165;-43
2021/12/20 10:49:26;;;;;;;3.15;1.65;;;;;;;;;;4992281;28;20039;-44
2021/12/20 10:51:52;;;;;;;5.78;1.88;;;;;;;;;;4994065;28;20120;-44
2021/12/20 10:54:21;;;;;;;2.17;1.80;;;;;;;;;;4993799;28;20045;-41
2021/12/20 10:56:53;;;;;;;3.72;1.50;;;;;;;;;;4994964;28;20095;-43
2021/12/20 10:59:24;;;;;;;2.72;1.80;;;;;;;;;;4989064;28;20054;-40
2021/12/20 11:04:28;;;;;;;2.42;1.42;;;;;;;;;;4990685;28;20042;-40
2021/12/20 11:07:03;;;;;;;3.40;1.80;;;;;;;;;;4994174;28;20116;-38
2021/12/20 11:09:34;;;;;;;5.30;1.60;;;;;;;;;;4993065;28;20039;-44
2021/12/20 11:12:13;;;;;;;2.75;1.67;;;;;;;;;;4990640;28;20046;-45
2021/12/20 11:14:41;;;;;;;3.67;1.77;;;;;;;;;;4994553;28;20046;-43
2021/12/20 11:17:09;;;;;;;4.75;2.13;;;;;;;;;;4992301;28;20046;-42
2021/12/20 11:19:39;;;;;;;3.85;2.08;;;;;;;;;;4992497;28;20129;-48
2021/12/20 11:22:16;;;;;;;3.92;1.85;;;;;;;;;;4993547;28;20077;-45
2021/12/20 11:25:11;;;;;;;3.30;2.03;;;;;;;;;;4996205;28;20138;-44
2021/12/20 11:27:42;;;;;;;5.32;2.17;;;;;;;;;;4988223;28;20429;-43
2021/12/20 11:30:15;;;;;;;3.88;2.03;;;;;;;;;;4991819;28;20048;-41
2021/12/20 11:32:42;;;;;;;3.13;2.00;;;;;;;;;;4993638;28;20776;-42
2021/12/20 11:35:08;;;;;;;4.22;2.15;;;;;;;;;;4992470;28;20471;-44
2021/12/20 11:37:34;;;;;;;4.28;1.98;;;;;;;;;;4995003;28;20133;-43
2021/12/20 11:40:03;;;;;;;4.35;2.72;;;;;;;;;;4994687;28;20034;-44
2021/12/20 11:42:29;;;;;;;3.33;2.08;;;;;;;;;;4991214;28;20156;-41
2021/12/20 11:44:56;;;;;;;4.80;2.42;;;;;;;;;;4995018;28;20048;-42
2021/12/20 11:47:35;;;;;;;4.10;1.88;;;;;;;;;;4986759;28;20030;-44
2021/12/20 11:50:06;;;;;;;4.90;2.17;;;;;;;;;;4999200;28;20125;-40
2021/12/20 11:52:40;;;;;;;4.72;2.00;;;;;;;;;;4997001;28;20409;-39
2021/12/20 11:55:21;;;;;;;7.20;2.65;;;;;;;;;;4998287;28;20161;-43
2021/12/20 11:57:51;;;;;;;2.92;1.88;;;;;;;;;;4998459;28;20056;-45
2021/12/20 12:00:22;;;;;;;2.70;1.75;;;;;;;;;;4995008;28;20080;-46
2021/12/20 12:02:50;;;;;;;5.05;2.35;;;;;;;;;;4997423;28;20339;-41
2021/12/20 12:05:37;;;;;;;4.63;2.80;;;;;;;;;;4998600;28;20041;-41
2021/12/20 12:08:22;;;;;;;2.83;1.95;;;;;;;;;;4989508;28;20034;-36
2021/12/20 12:10:47;;;;;;;3.83;2.08;;;;;;;;;;4998156;28;20046;-36
2021/12/20 12:13:18;;;;;;;3.05;2.17;;;;;;;;;;4997324;28;20119;-35
2021/12/20 12:16:05;;;;;;;4.40;1.85;;;;;;;;;;4997660;28;20046;-35
2021/12/20 12:18:48;;;;;;;3.25;1.90;;;;;;;;;;4994904;28;20069;-34
2021/12/20 12:21:38;;;;;;;4.00;2.00;;;;;;;;;;4995235;28;20045;-30
2021/12/20 12:24:06;;;;;;;3.35;2.10;;;;;;;;;;4998068;28;20588;-31
2021/12/20 12:26:34;;;;;;;3.53;1.73;;;;;;;;;;4995557;28;20125;-37
2021/12/20 12:29:02;;;;;;;3.80;1.83;;;;;;;;;;4998718;28;20455;-35
2021/12/20 12:31:45;;;;;;;2.63;1.65;;;;;;;;;;4993334;28;20066;-40
2021/12/20 12:34:11;;;;;;;3.92;1.98;;;;;;;;;;4988262;28;20156;-35
2021/12/20 12:36:40;;;;;;;2.88;1.90;;;;;;;;;;4997470;28;20117;-33
2021/12/20 12:39:26;;;;;;;4.40;2.20;;;;;;;;;;4996700;28;20080;-40
2021/12/20 12:41:59;;;;;;;;;;;;;;;;;;4992681;28;20039;-33
2021/12/20 12:44:28;;;;;;;4.53;1.88;;;;;;;;;;4994948;28;19918;-37
2021/12/20 12:47:14;;;;;;;5.78;2.03;;;;;;;;;;4995362;28;20070;-32
2021/12/20 12:49:46;;;;;;;3.58;1.98;;;;;;;;;;4993608;28;20042;-39
2021/12/20 12:52:33;;;;;;;4.65;2.13;;;;;;;;;;4994606;28;20042;-38
2021/12/20 12:55:14;;;;;;;5.07;2.00;;;;;;;;;;4990278;28;20053;-46
2021/12/20 12:57:43;;;;;;;3.63;2.05;;;;;;;;;;4993512;28;20045;-44
2021/12/20 13:00:21;;;;;;;5.38;1.83;;;;;;;;;;4997193;28;20527;-45
2021/12/20 13:02:49;;;;;;;6.57;2.42;;;;;;;;;;4996632;28;20057;-35
2021/12/20 13:05:20;;;;;;;4.47;2.13;;;;;;;;;;4994753;28;20050;-36
2021/12/20 13:07:59;;;;;;;2.97;1.98;;;;;;;;;;4994928;28;20572;-36
2021/12/20 13:10:40;;;;;;;3.78;2.00;;;;;;;;;;4994761;28;20050;-36
2021/12/20 13:13:24;;;;;;;5.88;1.95;;;;;;;;;;4994246;28;20493;-36
2021/12/20 13:16:00;;;;;;;3.78;1.83;;;;;;;;;;4996748;28;20042;-37
2021/12/20 13:18:35;;;;;;;2.60;1.77;;;;;;;;;;4990862;28;20030;-36
2021/12/20 13:21:03;;;;;;;2.20;1.55;;;;;;;;;;4997207;28;20223;-35
2021/12/20 13:23:31;;;;;;;2.22;1.50;;;;;;;;;;4995391;28;20041;-33
2021/12/20 13:26:05;;;;;;;3.08;1.63;;;;;;;;;;4997188;28;20038;-35
2021/12/20 13:28:34;;;;;;;3.53;1.77;;;;;;;;;;4995181;28;20059;-36
2021/12/20 13:31:11;;;;;;;2.35;1.35;;;;;;;;;;4997260;28;20125;-35
2021/12/20 13:33:46;;;;;;;4.10;2.20;;;;;;;;;;4994537;28;20044;-33
2021/12/20 13:36:15;;;;;;;4.65;1.80;;;;;;;;;;4998497;28;20048;-37
2021/12/20 13:38:43;;;;;;;5.68;1.98;;;;;;;;;;4993796;28;20096;-39
2021/12/20 13:41:21;;;;;;;3.50;1.98;;;;;;;;;;4994583;28;20058;-38
2021/12/20 13:43:51;;;;;;;6.45;2.22;;;;;;;;;;4994592;28;20046;-38
2021/12/20 13:49:12;;;;;;;6.30;2.25;;;;;;;;;;4996369;28;20037;-38
2021/12/20 13:51:39;;;;;;;4.87;2.10;;;;;;;;;;4994386;28;20073;-39
2021/12/20 13:54:28;;;;;;;5.05;2.20;;;;;;;;;;4994813;28;20112;-38
2021/12/20 13:57:04;;;;;;;9.93;2.55;;;;;;;;;;4995678;28;20045;-40
2021/12/20 13:59:39;;;;;;;5.50;2.58;;;;;;;;;;4994279;28;20053;-37
2021/12/20 14:02:09;;;;;;;7.93;2.80;;;;;;;;;;4993024;28;20046;-38
2021/12/20 14:04:38;;;;;;;8.75;2.85;;;;;;;;;;4994520;28;20126;-38
2021/12/20 14:07:25;;;;;;;7.82;3.15;;;;;;;;;;4992413;28;20042;-37
2021/12/20 14:10:06;;;;;;;6.57;3.10;;;;;;;;;;4992279;28;20042;-35
2021/12/20 14:12:36;;;;;;;9.82;2.90;;;;;;;;;;4991237;28;20042;-35
2021/12/20 14:15:13;;;;;;;10.13;3.40;;;;;;;;;;4994067;28;20038;-39
2021/12/20 14:18:00;;;;;;;8.32;2.95;;;;;;;;;;4994945;28;20116;-35
2021/12/20 14:20:38;;;;;;;11.35;3.17;;;;;;;;;;4992849;28;20392;-35
2021/12/20 14:23:07;;;;;;;6.35;2.78;;;;;;;;;;4994121;28;20575;-38
2021/12/20 14:25:41;;;;;;;8.05;3.67;;;;;;;;;;4992324;28;20050;-39
2021/12/20 14:28:10;;;;;;;8.98;3.13;;;;;;;;;;4994724;28;20489;-40
2021/12/20 14:30:42;;;;;;;11.30;3.28;;;;;;;;;;4992985;28;20054;-37
2021/12/20 14:33:33;;;;;;;6.90;3.20;;;;;;;;;;4995357;28;20041;-38
2021/12/20 14:36:13;;;;;;;8.68;3.13;;;;;;;;;;4993331;28;20163;-44
2021/12/20 14:38:47;;;;;;;6.28;2.97;;;;;;;;;;4992816;28;20050;-39
2021/12/20 14:41:16;;;;;;;7.35;3.20;;;;;;;;;;4993299;28;20042;-40
2021/12/20 14:43:43;;;;;;;6.13;2.35;;;;;;;;;;4993100;28;20047;-40
2021/12/20 14:46:18;;;;;;;4.85;2.30;;;;;;;;;;4994752;28;20038;-39
2021/12/20 14:48:51;;;;;;;5.47;2.75;;;;;;;;;;4992026;28;20069;-37
2021/12/20 14:51:21;;;;;;;7.43;2.45;;;;;;;;;;4992467;28;20164;-37
2021/12/20 14:53:47;;;;;;;9.57;3.17;;;;;;;;;;4993131;28;20532;-38
2021/12/20 14:56:13;;;;;;;8.40;3.03;;;;;;;;;;4991888;28;20049;-40
2021/12/20 14:58:39;;;;;;;6.00;2.80;;;;;;;;;;4994234;28;20053;-39
2021/12/20 15:01:05;;;;;;;6.47;2.83;;;;;;;;;;4996732;28;20160;-37
2021/12/20 15:03:31;;;;;;;9.23;2.90;;;;;;;;;;4993047;28;20042;-39
2021/12/20 15:06:06;;;;;;;5.22;2.85;;;;;;;;;;4994547;28;20471;-38
2021/12/20 15:08:32;;;;;;;10.35;3.13;;;;;;;;;;4986865;28;20137;-38
2021/12/20 15:10:57;;;;;;;6.03;2.53;;;;;;;;;;4995804;28;20112;-38
2021/12/20 15:13:23;;;;;;;4.85;2.50;;;;;;;;;;4995202;28;20906;-40
2021/12/20 15:15:49;;;;;;;6.53;2.88;;;;;;;;;;4994312;28;20153;-38
2021/12/20 15:18:14;;;;;;;6.53;3.00;;;;;;;;;;4992687;28;20560;-39
2021/12/20 15:20:40;;;;;;;6.55;2.72;;;;;;;;;;4995816;28;20050;-38
2021/12/20 15:23:06;;;;;;;4.82;2.88;;;;;;;;;;4993657;28;20125;-42
2021/12/20 15:25:32;;;;;;;7.00;2.97;;;;;;;;;;4998868;28;20105;-38
2021/12/20 15:27:58;;;;;;;5.75;2.53;;;;;;;;;;4999216;28;20034;-39
2021/12/20 15:30:24;;;;;;;6.97;2.78;;;;;;;;;;4996448;28;20387;-39
2021/12/20 15:32:50;;;;;;;5.38;2.40;;;;;;;;;;4999909;28;20043;-39
2021/12/20 15:35:17;;;;;;;5.45;2.40;;;;;;;;;;4996978;28;20497;-39
2021/12/20 15:37:44;;;;;;;6.18;2.38;;;;;;;;;;4999209;28;20046;-39
2021/12/20 15:40:10;;;;;;;5.88;2.75;;;;;;;;;;4996027;28;20038;-38
2021/12/20 15:42:45;;;;;;;7.13;2.50;;;;;;;;;;4997979;28;20042;-39
2021/12/20 15:45:11;;;;;;;4.87;2.30;;;;;;;;;;4994917;28;20084;-39
2021/12/20 15:47:36;;;;;;;6.25;2.55;;;;;;;;;;4996757;28;20501;-37
2021/12/20 15:50:02;;;;;;;6.10;2.95;;;;;;;;;;4996988;28;20062;-38
2021/12/20 15:52:28;;;;;;;4.10;2.05;;;;;;;;;;4996806;28;20050;-37
2021/12/20 15:54:54;;;;;;;3.88;2.30;;;;;;;;;;4999058;28;20046;-36
2021/12/20 15:57:19;;;;;;;4.43;1.83;;;;;;;;;;4994872;28;20412;-37
2021/12/20 15:59:45;;;;;;;5.53;2.25;;;;;;;;;;4998711;28;20072;-38
2021/12/20 16:02:11;;;;;;;3.67;2.22;;;;;;;;;;4996369;28;20749;-37
2021/12/20 16:04:38;;;;;;;5.15;2.67;;;;;;;;;;4997588;28;20093;-39
2021/12/20 16:07:04;;;;;;;5.38;2.53;;;;;;;;;;4999026;28;20320;-36
2021/12/20 16:09:30;;;;;;;5.05;2.75;;;;;;;;;;4995962;28;20052;-38
2021/12/20 16:11:55;;;;;;;6.15;2.45;;;;;;;;;;5000615;28;20082;-37
2021/12/20 16:14:21;;;;;;;3.65;2.35;;;;;;;;;;4994626;28;20046;-35
2021/12/20 16:16:47;;;;;;;7.82;2.95;;;;;;;;;;4996005;28;20043;-37
2021/12/20 16:19:13;;;;;;;4.22;2.22;;;;;;;;;;4995335;28;20409;-39
2021/12/20 16:21:38;;;;;;;5.38;2.60;;;;;;;;;;4994490;28;20062;-38
2021/12/20 16:24:05;;;;;;;5.50;2.50;;;;;;;;;;4998052;28;20087;-37
2021/12/20 16:26:30;;;;;;;6.00;2.58;;;;;;;;;;4995169;28;20039;-38
2021/12/20 16:28:56;;;;;;;5.80;2.55;;;;;;;;;;4998619;28;20401;-37
2021/12/20 16:31:22;;;;;;;7.85;3.00;;;;;;;;;;4997675;28;20046;-38
2021/12/20 16:33:48;;;;;;;5.72;2.70;;;;;;;;;;4996390;28;20043;-38
2021/12/20 16:36:13;;;;;;;7.35;2.65;;;;;;;;;;4999724;28;20043;-37
2021/12/20 16:38:39;;;;;;;3.75;2.33;;;;;;;;;;4999904;28;20034;-37
2021/12/20 16:41:05;;;;;;;7.03;2.67;;;;;;;;;;4998586;28;20845;-38
2021/12/20 16:43:36;;;;;;;6.53;2.67;;;;;;;;;;4997315;28;20042;-38
2021/12/20 16:46:05;;;;;;;7.05;3.55;;;;;;;;;;4998639;28;20042;-38
2021/12/20 16:48:34;;;;;;;5.15;2.45;;;;;;;;;;4997227;28;20047;-37
2021/12/20 16:51:01;;;;;;;5.47;2.40;;;;;;;;;;4998178;28;20042;-37
2021/12/20 16:53:27;;;;;;;5.85;2.90;;;;;;;;;;4996508;28;20121;-38
2021/12/20 16:55:53;;;;;;;5.38;2.58;;;;;;;;;;4995457;28;20489;-38
2021/12/20 16:58:20;;;;;;;4.55;2.65;;;;;;;;;;4996952;28;20041;-38
2021/12/20 17:00:46;;;;;;;4.82;2.33;;;;;;;;;;4997697;28;20045;-38
2021/12/20 17:08:20;;;;;;;4.85;2.47;;;;;;;;;;4997600;28;20042;-35
2021/12/20 17:10:47;;;;;;;4.65;2.20;;;;;;;;;;4996542;28;20089;-37
2021/12/20 17:13:14;;;;;;;5.18;2.72;;;;;;;;;;4996360;28;20173;-37
2021/12/20 17:15:40;;;;;;;3.63;2.58;;;;;;;;;;4994724;28;20039;-37
2021/12/20 17:18:13;;;;;;;3.85;2.22;;;;;;;;;;4995694;28;20537;-38
2021/12/20 17:20:39;;;;;;;4.68;2.20;;;;;;;;;;4994886;28;20452;-37
2021/12/20 17:23:05;;;;;;;4.63;2.65;;;;;;;;;;4995004;28;20080;-37
2021/12/20 17:25:31;;;;;;;4.15;2.28;;;;;;;;;;4995738;28;20050;-37
2021/12/20 17:27:57;;;;;;;5.80;2.60;;;;;;;;;;4994236;28;20383;-37
2021/12/20 17:30:24;;;;;;;5.15;2.40;;;;;;;;;;4994971;28;20057;-37
2021/12/20 17:32:50;;;;;;;3.95;2.88;;;;;;;;;;4994977;28;20405;-37
2021/12/20 17:35:17;;;;;;;6.35;2.63;;;;;;;;;;4996204;28;20102;-37
2021/12/20 17:37:45;;;;;;;4.28;2.60;;;;;;;;;;4996612;28;20481;-38
2021/12/20 17:40:11;;;;;;;4.38;2.40;;;;;;;;;;4994470;28;20044;-38
2021/12/20 17:42:37;;;;;;;3.40;2.58;;;;;;;;;;4995781;28;20046;-36
2021/12/20 17:45:04;;;;;;;5.80;3.47;;;;;;;;;;4994406;28;20043;-38
2021/12/20 17:47:30;;;;;;;2.67;2.45;;;;;;;;;;4993897;28;20039;-37
2021/12/20 17:49:56;;;;;;;6.20;2.95;;;;;;;;;;4997078;28;20075;-37
2021/12/20 17:52:21;;;;;;;4.60;2.78;;;;;;;;;;4994096;28;20572;-37
2021/12/20 17:54:48;;;;;;;4.35;2.60;;;;;;;;;;4996380;28;20057;-38
2021/12/20 17:57:13;;;;;;;6.32;3.85;;;;;;;;;;4993063;28;20378;-37
2021/12/20 17:59:39;;;;;;;5.32;3.22;;;;;;;;;;4994540;28;20046;-38
2021/12/20 18:02:05;;;;;;;5.80;3.30;;;;;;;;;;4995490;28;20045;-38
2021/12/20 18:04:31;;;;;;;5.05;3.70;;;;;;;;;;4993276;28;20046;-38
2021/12/20 18:06:58;;;;;;;6.05;3.55;;;;;;;;;;4997479;28;20509;-37
2021/12/20 18:09:23;;;;;;;5.50;3.50;;;;;;;;;;4996935;28;20042;-38
2021/12/20 18:11:49;;;;;;;6.32;4.63;;;;;;;;;;4994579;28;20504;-38
2021/12/20 18:14:16;;;;;;;6.95;3.95;;;;;;;;;;4994008;28;20031;-38
2021/12/20 18:16:42;;;;;;;7.22;4.43;;;;;;;;;;4996843;28;20046;-37
2021/12/20 18:19:08;;;;;;;6.05;4.03;;;;;;;;;;4997651;28;20157;-39
2021/12/20 18:21:34;;;;;;;6.03;3.75;;;;;;;;;;4998199;28;20110;-37
2021/12/20 18:24:01;;;;;;;4.10;3.30;;;;;;;;;;4996251;28;20670;-37
2021/12/20 18:26:27;;;;;;;5.43;4.03;;;;;;;;;;4994281;28;22643;-38
2021/12/20 18:28:54;;;;;;;5.03;3.63;;;;;;;;;;4996794;28;20042;-37
2021/12/20 18:31:20;;;;;;;5.15;3.85;;;;;;;;;;4993797;28;20042;-38
2021/12/20 18:33:47;;;;;;;4.38;3.83;;;;;;;;;;4993997;28;20050;-37
2021/12/20 18:36:13;;;;;;;4.65;3.40;;;;;;;;;;4993574;28;20316;-37
2021/12/20 18:38:38;;;;;;;5.28;4.10;;;;;;;;;;4995977;28;20574;-37
2021/12/20 18:41:05;;;;;;;4.03;3.38;;;;;;;;;;4997564;28;20041;-38
2021/12/20 18:43:31;;;;;;;4.20;3.47;;;;;;;;;;4994454;28;20080;-37
2021/12/20 18:45:57;;;;;;;3.95;3.65;;;;;;;;;;4993598;28;20068;-36
2021/12/20 18:48:23;;;;;;;4.68;3.75;;;;;;;;;;4993910;28;20561;-38
2021/12/20 18:50:51;;;;;;;5.35;3.55;;;;;;;;;;4996932;28;20053;-38
2021/12/20 18:53:17;;;;;;;4.82;3.70;;;;;;;;;;4992018;28;20121;-37
2021/12/20 18:55:43;;;;;;;5.13;3.78;;;;;;;;;;4995632;28;20579;-37
2021/12/20 18:58:09;;;;;;;4.68;3.45;;;;;;;;;;4992748;28;20520;-38
2021/12/20 19:00:37;;;;;;;5.72;3.92;;;;;;;;;;4994221;28;20049;-37
2021/12/20 19:03:06;;;;;;;3.83;3.17;;;;;;;;;;4995236;28;20437;-38
2021/12/20 19:05:33;;;;;;;3.75;3.38;;;;;;;;;;4993450;28;20046;-38
2021/12/20 19:07:58;;;;;;;4.80;3.72;;;;;;;;;;4995437;28;20061;-38
2021/12/20 19:10:26;;;;;;;4.72;3.65;;;;;;;;;;4993080;28;20037;-38
2021/12/20 19:13:01;;;;;;;5.45;3.60;;;;;;;;;;4995489;28;20450;-40
2021/12/20 19:15:27;;;;;;;4.07;3.23;;;;;;;;;;4991559;28;20042;-38
2021/12/20 19:17:53;;;;;;;4.63;4.03;;;;;;;;;;4994573;28;20486;-38
2021/12/20 19:20:19;;;;;;;4.38;3.47;;;;;;;;;;4993161;28;20035;-38
2021/12/20 19:22:45;;;;;;;5.05;3.63;;;;;;;;;;4993260;28;20046;-37
2021/12/20 19:25:10;;;;;;;5.68;3.90;;;;;;;;;;4993548;28;20037;-38
2021/12/20 19:27:36;;;;;;;4.35;3.70;;;;;;;;;;4993444;28;20129;-38
2021/12/20 19:30:02;;;;;;;5.07;3.72;;;;;;;;;;4995999;28;20117;-37
2021/12/20 19:32:28;;;;;;;4.10;3.58;;;;;;;;;;4993982;28;20416;-38
2021/12/20 19:34:54;;;;;;;3.22;2.92;;;;;;;;;;4993542;28;20321;-37
2021/12/20 19:37:20;;;;;;;4.70;3.67;;;;;;;;;;4993400;28;20120;-37
2021/12/20 19:39:45;;;;;;;5.00;3.40;;;;;;;;;;4996734;28;20074;-37
2021/12/20 19:42:13;;;;;;;4.13;3.67;;;;;;;;;;4995821;28;20505;-37
2021/12/20 19:44:40;;;;;;;6.38;3.88;;;;;;;;;;4994662;28;20552;-38
2021/12/20 19:47:07;;;;;;;3.67;3.25;;;;;;;;;;4996435;28;20126;-38
2021/12/20 19:49:34;;;;;;;4.82;3.60;;;;;;;;;;4995864;28;20468;-38
2021/12/20 19:52:00;;;;;;;4.88;3.55;;;;;;;;;;4995220;28;20034;-37
2021/12/20 19:54:29;;;;;;;5.38;3.67;;;;;;;;;;4993305;28;20121;-36
2021/12/20 19:56:57;;;;;;;6.32;3.50;;;;;;;;;;4992996;28;20096;-37
2021/12/20 19:59:23;;;;;;;4.00;3.60;;;;;;;;;;4995279;28;20049;-37
2021/12/20 20:01:51;;;;;;;5.43;3.95;;;;;;;;;;4994806;28;20074;-37
2021/12/20 20:04:21;;;;;;;4.00;3.17;;;;;;;;;;4994085;28;20397;-37
2021/12/20 20:06:47;;;;;;;3.97;3.25;;;;;;;;;;4993803;28;20092;-37
2021/12/20 20:09:15;;;;;;;3.70;3.00;;;;;;;;;;4994268;28;20046;-36
2021/12/20 20:11:41;;;;;;;3.85;3.38;;;;;;;;;;4998340;28;20061;-36
2021/12/20 20:14:06;;;;;;;3.70;3.40;;;;;;;;;;4997835;28;20635;-38
2021/12/20 20:16:32;;;;;;;3.60;3.30;;;;;;;;;;4997363;28;20521;-36
2021/12/20 20:18:58;;;;;;;4.40;3.42;;;;;;;;;;4996062;28;20041;-37
2021/12/20 20:21:25;;;;;;;7.30;3.58;;;;;;;;;;4994380;28;20034;-40
2021/12/20 20:23:50;;;;;;;5.88;3.40;;;;;;;;;;4996984;28;20512;-36
2021/12/20 20:26:17;;;;;;;5.25;3.50;;;;;;;;;;4994997;28;20052;-35
2021/12/20 20:28:46;;;;;;;8.43;3.60;;;;;;;;;;4994093;28;20042;-36
2021/12/20 20:31:12;;;;;;;6.68;3.63;;;;;;;;;;4994474;28;20045;-35
2021/12/20 20:33:38;;;;;;;5.13;3.08;;;;;;;;;;4995894;28;20050;-33
2021/12/20 20:36:04;;;;;;;4.18;3.55;;;;;;;;;;4998405;28;20041;-37
2021/12/20 20:38:29;;;;;;;4.68;3.50;;;;;;;;;;4993527;28;20050;-38
2021/12/20 20:40:56;;;;;;;5.40;3.42;;;;;;;;;;4993261;28;20412;-36
2021/12/20 20:43:21;;;;;;;3.78;3.33;;;;;;;;;;4994828;28;20042;-41
2021/12/20 20:45:47;;;;;;;4.45;3.50;;;;;;;;;;4997027;28;20091;-39
2021/12/20 20:48:13;;;;;;;3.60;3.20;;;;;;;;;;4992938;28;20040;-39
2021/12/20 20:50:38;;;;;;;4.93;3.35;;;;;;;;;;4995879;28;20104;-42
2021/12/20 20:53:04;;;;;;;3.80;3.20;;;;;;;;;;4994608;28;20668;-43
2021/12/20 20:55:30;;;;;;;3.90;3.10;;;;;;;;;;4994477;28;20046;-37
2021/12/20 20:57:55;;;;;;;5.75;3.42;;;;;;;;;;4997153;28;20065;-38
2021/12/20 21:03:07;;;;;;;4.45;3.20;;;;;;;;;;4996306;28;20169;-41
2021/12/20 21:05:33;;;;;;;5.72;3.33;;;;;;;;;;4992553;28;20114;-43
2021/12/20 21:07:59;;;;;;;4.15;2.90;;;;;;;;;;4996596;28;20042;-40
2021/12/20 21:10:26;;;;;;;3.75;3.17;;;;;;;;;;4994266;28;20038;-40
2021/12/20 21:12:52;;;;;;;4.13;3.50;;;;;;;;;;4995581;28;20040;-40
2021/12/20 21:15:18;;;;;;;2.75;2.50;;;;;;;;;;4994792;28;20034;-43
2021/12/20 21:17:44;;;;;;;5.32;3.35;;;;;;;;;;4997399;28;20049;-41
2021/12/20 21:20:10;;;;;;;4.47;3.30;;;;;;;;;;4994589;28;20089;-38
2021/12/20 21:22:37;;;;;;;7.57;4.18;;;;;;;;;;4994063;28;20041;-41
2021/12/20 21:25:03;;;;;;;4.90;3.42;;;;;;;;;;4995831;28;20041;-37
2021/12/20 21:27:29;;;;;;;4.60;3.50;;;;;;;;;;4993236;28;20045;-45
2021/12/20 21:29:56;;;;;;;6.13;3.70;;;;;;;;;;4997074;28;20038;-39
2021/12/20 21:32:22;;;;;;;6.18;4.13;;;;;;;;;;4993618;28;20041;-39
2021/12/20 21:34:48;;;;;;;5.97;3.45;;;;;;;;;;4996721;28;20073;-38
2021/12/20 21:37:14;;;;;;;5.65;3.70;;;;;;;;;;4995596;28;20069;-41
2021/12/20 21:39:40;;;;;;;6.03;3.67;;;;;;;;;;4995997;28;20042;-36
2021/12/20 21:42:07;;;;;;;5.25;3.53;;;;;;;;;;4997498;28;20501;-43
2021/12/20 21:44:32;;;;;;;4.13;3.40;;;;;;;;;;4995421;28;20034;-40
2021/12/20 21:46:58;;;;;;;4.95;4.05;;;;;;;;;;4997094;28;20619;-40
2021/12/20 21:49:24;;;;;;;5.50;3.97;;;;;;;;;;4994229;28;20038;-42
2021/12/20 21:51:49;;;;;;;6.20;4.03;;;;;;;;;;4996272;28;20065;-42
2021/12/20 21:54:15;;;;;;;5.22;3.90;;;;;;;;;;4992644;28;20412;-41
2021/12/20 21:56:41;;;;;;;5.50;4.45;;;;;;;;;;4994422;28;20674;-40
2021/12/20 21:59:07;;;;;;;5.43;4.25;;;;;;;;;;4994926;28;20105;-44
2021/12/20 22:01:32;;;;;;;5.55;4.38;;;;;;;;;;4992356;28;20042;-40
2021/12/20 22:04:00;;;;;;;7.90;4.85;;;;;;;;;;4996216;28;20061;-40
2021/12/20 22:06:26;;;;;;;9.45;5.28;;;;;;;;;;4994426;28;20034;-40
2021/12/20 22:08:53;;;;;;;8.15;5.63;;;;;;;;;;4995648;28;20038;-38